Hovedside
METAR-TAF:

METAR-TAF

Lufthavner :

Kiruna, Sverige

Kiruna lufthavn

breddegrad: 67-49N, lengdegrad: 020-20E, høyde over havet: 452 m

Gjeldene værobservasjon

Denne rapporten ble laget for 10 minutter siden, klokken 21:50 UTC
Flau vind
Temperatur 14°C
Luftfuktighet 94%
Trykk 1008 hPa
Sikt: 6000 m
dis

METAR: ESNQ 182150Z AUTO 00000KT 6000 BR FEW003/// SCT007/// BKN014/// 14/13 Q1008

Tid: 00:00 (22:00 UTC)

Varsel

Denne rapporten ble laget for 7 timer og 30 minutter siden, klokken 14:30 UTC
Varsel gyldig fra 18. klokken 15 UTC til 18. klokken 17 UTC
Vind 8 kt fra Sør
Sikt 10 km eller mer
Spredte skyer i en høyde av 3000 ft
Brutte skyer i en høyde av 5500 ft
Sannsynlighet 40%
fra 18. klokken 15 UTC til 18. klokken 17 UTC
Spredte skyer i en høyde av 3000 ft, Bygeskyer.
regnbyger

TAF: ESNQ 181430Z 1815/1817 18008KT 9999 SCT030 BKN055 PROB40 1815/1817 SHRA SCT030CB

Værobservasjoner og værvarsel for over 4000 flyplasser (METAR- og TAF-rapporter).

Tilgjengelige stasjoner er representert av de røde og gule prikkene på kartet.

Hold musepekeren over prikken for å se navnet på stasjonen.

Klikk så for å se værobservasjoner og -varsler.

For å forandre kartet kan du klikke på den grønne knappen med svart kryss for å zoome inn, på den grønne knappen med strek for å zoome ut, eller på de grønne pilene for å se tilstøtende kart.


METAR-TAF: